Janet — 9HSL8 — position and weather

sailwx.info

Track history (hours):
 
Tides and Currents Weather Stations Pressure Air Temp Water Temp Dewpoint Dewpoint Depression Visibility Wind Speed Wind Dir Waves Ship Positions

Janet

Last reported at 2016-Sep-23 13:16 UTC. Time now 2016-Sep-25 02:02 UTC.
Position N 44°30' E 013°05'.

Length 90 m; draft 6.4 m.

Type: Cargo ship. MMSI: 256371000.

Date/timePositionNaut miles runAvg speedWind from/ knotsBaromVisibWave heightAir tempDewpointWater temp
2016-Sep-23 13:16N 44°30' E 013°05'4211.2
2016-Sep-23 09:33N 45°08' E 012°40'18 6.0
2016-Sep-23 06:33N 45°12' E 012°16'0 0.0
2016-Sep-23 04:33N 45°12' E 012°16'0 0.0
2016-Sep-23 03:33N 45°12' E 012°16'0 0.0
2016-Sep-23 02:33N 45°12' E 012°16'0 0.0
2016-Sep-23 01:33N 45°12' E 012°16'0 0.0
2016-Sep-23 00:33N 45°12' E 012°16'0 0.0
2016-Sep-22 23:33N 45°12' E 012°16'0 0.0
2016-Sep-22 20:33N 45°12' E 012°16'0 0.0
2016-Sep-22 12:33N 45°12' E 012°16'0 0.0
2016-Sep-22 04:33N 45°12' E 012°16'0 0.0
2016-Sep-22 03:33N 45°12' E 012°16'0 0.0
2016-Sep-22 00:33N 45°12' E 012°16'0 0.0
2016-Sep-21 23:27N 45°12' E 012°16'0 0.0
2016-Sep-21 22:33N 45°13' E 012°16'0 0.0
2016-Sep-21 19:33N 45°12' E 012°16'0 0.0
2016-Sep-21 16:33N 45°12' E 012°16'0 0.0
2016-Sep-21 09:30N 45°12' E 012°16'0 0.0
2016-Sep-21 08:33N 45°13' E 012°16'0 0.0
2016-Sep-21 05:33N 45°13' E 012°16'0 0.0
2016-Sep-21 03:30N 45°12' E 012°16'0 0.0
2016-Sep-21 02:33N 45°12' E 012°16'0 0.0
2016-Sep-20 17:33N 45°12' E 012°16'0 0.0
2016-Sep-20 14:33N 45°12' E 012°16'0 0.0
2016-Sep-20 13:33N 45°13' E 012°16'0 0.0
2016-Sep-20 10:33N 45°12' E 012°16'0 0.0
2016-Sep-20 08:33N 45°13' E 012°16'1 1.3
2016-Sep-20 07:33N 45°14' E 012°16'5 4.7
2016-Sep-20 06:32N 45°15' E 012°23'0 0.0
2016-Sep-20 02:33N 45°15' E 012°23'0 0.0
2016-Sep-19 23:33N 45°15' E 012°23'0 0.0
2016-Sep-19 19:33N 45°15' E 012°23'0 0.0
2016-Sep-19 18:33N 45°15' E 012°23'0 0.0
2016-Sep-19 16:31N 45°15' E 012°23'15 7.7
2016-Sep-19 14:33N 45°11' E 012°44'10 9.9
2016-Sep-19 13:33N 45°03' E 012°52'1010.4
2016-Sep-19 12:33N 44°53' E 012°58'1010.2
2016-Sep-19 11:33N 44°43' E 013°03'2110.4
2016-Sep-19 09:33N 44°24' E 013°12'  
Track history (hours):
 
Tides and Currents Weather Stations Pressure Air Temp Water Temp Dewpoint Dewpoint Depression Visibility Wind Speed Wind Dir Waves Ship Positions

Janet

Last reported at 2016-Sep-23 13:16 UTC. Time now 2016-Sep-25 02:02 UTC.
Position N 44°30' E 013°05'.

Length 90 m; draft 6.4 m.

Type: Cargo ship. MMSI: 256371000.

Date/timePositionNaut miles runAvg speedWind from/ knotsBaromVisibWave heightAir tempDewpointWater temp
2016-Sep-23 13:16N 44°30' E 013°05'4211.2
2016-Sep-23 09:33N 45°08' E 012°40'18 6.0
2016-Sep-23 06:33N 45°12' E 012°16'0 0.0
2016-Sep-23 04:33N 45°12' E 012°16'0 0.0
2016-Sep-23 03:33N 45°12' E 012°16'0 0.0
2016-Sep-23 02:33N 45°12' E 012°16'0 0.0
2016-Sep-23 01:33N 45°12' E 012°16'0 0.0
2016-Sep-23 00:33N 45°12' E 012°16'0 0.0
2016-Sep-22 23:33N 45°12' E 012°16'0 0.0
2016-Sep-22 20:33N 45°12' E 012°16'0 0.0
2016-Sep-22 12:33N 45°12' E 012°16'0 0.0
2016-Sep-22 04:33N 45°12' E 012°16'0 0.0
2016-Sep-22 03:33N 45°12' E 012°16'0 0.0
2016-Sep-22 00:33N 45°12' E 012°16'0 0.0
2016-Sep-21 23:27N 45°12' E 012°16'0 0.0
2016-Sep-21 22:33N 45°13' E 012°16'0 0.0
2016-Sep-21 19:33N 45°12' E 012°16'0 0.0
2016-Sep-21 16:33N 45°12' E 012°16'0 0.0
2016-Sep-21 09:30N 45°12' E 012°16'0 0.0
2016-Sep-21 08:33N 45°13' E 012°16'0 0.0
2016-Sep-21 05:33N 45°13' E 012°16'0 0.0
2016-Sep-21 03:30N 45°12' E 012°16'0 0.0
2016-Sep-21 02:33N 45°12' E 012°16'0 0.0
2016-Sep-20 17:33N 45°12' E 012°16'0 0.0
2016-Sep-20 14:33N 45°12' E 012°16'0 0.0
2016-Sep-20 13:33N 45°13' E 012°16'0 0.0
2016-Sep-20 10:33N 45°12' E 012°16'0 0.0
2016-Sep-20 08:33N 45°13' E 012°16'1 1.3
2016-Sep-20 07:33N 45°14' E 012°16'5 4.7
2016-Sep-20 06:32N 45°15' E 012°23'0 0.0
2016-Sep-20 02:33N 45°15' E 012°23'0 0.0
2016-Sep-19 23:33N 45°15' E 012°23'0 0.0
2016-Sep-19 19:33N 45°15' E 012°23'0 0.0
2016-Sep-19 18:33N 45°15' E 012°23'0 0.0
2016-Sep-19 16:31N 45°15' E 012°23'15 7.7
2016-Sep-19 14:33N 45°11' E 012°44'10 9.9
2016-Sep-19 13:33N 45°03' E 012°52'1010.4
2016-Sep-19 12:33N 44°53' E 012°58'1010.2
2016-Sep-19 11:33N 44°43' E 013°03'2110.4
2016-Sep-19 09:33N 44°24' E 013°12'  

Dump ship's entire track history